Tolovana Park, Oregon
Current Conditions -  °F | °C
As of 6:55 AM on Monday 24 Nov 2014 (Local Time) from KAST Reporting Station
Overcast Overcast  
Wind Chill: 40°   Ceiling: 1700
Heat Index: 43°   Visibility: 10mi
Dew Point: 43°   Wind: 5mph
Humidity: 100%   Direction: 70°ENE
Pressure: 30.32"   Gusts: NA
Location:  45.87°N, 123.96°W
Report Text: KAST 241455Z AUTO 07004KT 10SM OVC017 06/06 A3032 RMK AO2 SLP267 T00610061 55003
Loading
Personal Weather Stations






























Interactive Weather Map New forecast layout! Learn more

10-Day Weather Forecast

Advertisements
Track Severe Weather on mobile